Terminal Aerodrome Forecast
Issued by NWS

Home | Current Version | Previous Version | Text Only | Print | Product List | Glossary On
Versions: 1 2 3 4 5 6 7 8 9 10 11 12 13 14 15 16 17
000
FTUS42 KMLB 291807 AAA
TAFFPR
TAF AMD
KFPR 291807Z 2918/3018 07008KT P6SM VCSH SCT040 BKN070
      TEMPO 2918/2921 1SM +TSRA SCT020 BKN035CB OVC070
     FM300200 12003KT P6SM SCT020 SCT040
     FM301300 26006KT P6SM VCSH SCT030 SCT050=

USA.gov is the U.S. government's official web portal to all federal, state and local government web resources and services.